Time;durP1;ratioP1;P1;durP2;ratioP2;P2;SDS_P1;SDS_P2;PMS_P1;PMS_P2;Temp;Humidity;BMP_temperature;BMP_pressure;BME280_temperature;BME280_humidity;BME280_pressure;Samples;Min_cycle;Max_cycle;Signal;HPM_P1;HPM_P2
2022/10/18 00:00:47;;;;;;;5.63;3.08;;;20.10;63.40;;;;;;4996456;28;20057;-46
2022/10/18 00:03:14;;;;;;;5.80;3.15;;;20.10;63.50;;;;;;4997222;28;20050;-47
2022/10/18 00:05:42;;;;;;;6.00;2.95;;;20.10;63.50;;;;;;5003709;28;20046;-47
2022/10/18 00:08:09;;;;;;;5.30;3.40;;;20.10;63.50;;;;;;4989105;28;20065;-46
2022/10/18 00:10:36;;;;;;;5.25;3.00;;;20.00;63.50;;;;;;4995396;28;20415;-49
2022/10/18 00:13:03;;;;;;;4.32;3.17;;;20.00;63.50;;;;;;5003861;28;20049;-47
2022/10/18 00:15:30;;;;;;;6.40;3.80;;;20.00;63.60;;;;;;5000871;28;21811;-45
2022/10/18 00:17:59;;;;;;;7.40;3.53;;;20.00;63.60;;;;;;5003009;28;20498;-45
2022/10/18 00:20:27;;;;;;;4.57;3.13;;;20.00;63.70;;;;;;4995396;28;20058;-46
2022/10/18 00:22:54;;;;;;;6.63;4.00;;;20.00;63.70;;;;;;4999724;28;20050;-44
2022/10/18 00:25:22;;;;;;;5.15;3.63;;;20.00;63.80;;;;;;5002938;28;20046;-47
2022/10/18 00:27:49;;;;;;;5.05;3.78;;;20.00;63.80;;;;;;5004364;28;20061;-47
2022/10/18 00:30:16;;;;;;;6.07;3.78;;;20.00;63.80;;;;;;4998005;28;20054;-46
2022/10/18 00:32:43;;;;;;;21.90;4.38;;;19.90;63.80;;;;;;4993523;28;20057;-43
2022/10/18 00:35:12;;;;;;;6.20;4.05;;;19.90;63.80;;;;;;4995462;28;20693;-44
2022/10/18 00:37:39;;;;;;;4.20;3.45;;;19.90;63.90;;;;;;4999582;28;20391;-49
2022/10/18 00:40:07;;;;;;;28.95;4.65;;;19.90;63.90;;;;;;5000759;28;20058;-50
2022/10/18 00:42:36;;;;;;;5.07;3.83;;;19.90;64.00;;;;;;5004393;28;20062;-49
2022/10/18 00:45:17;;;;;;;4.95;4.05;;;19.90;64.00;;;;;;5003599;28;20065;-50
2022/10/18 00:47:50;;;;;;;7.10;3.75;;;19.90;64.10;;;;;;5000723;28;20181;-45
2022/10/18 00:50:20;;;;;;;3.55;3.25;;;19.90;64.00;;;;;;5002455;28;21025;-43
2022/10/18 00:52:52;;;;;;;5.88;4.22;;;19.80;64.00;;;;;;5001721;28;20486;-50
2022/10/18 00:55:20;;;;;;;5.28;4.40;;;19.80;64.10;;;;;;4995176;28;20056;-50
2022/10/18 00:57:47;;;;;;;6.70;4.60;;;19.80;64.10;;;;;;5001998;28;20050;-46
2022/10/18 01:00:15;;;;;;;5.65;4.05;;;19.80;64.20;;;;;;4993923;28;20060;-50
2022/10/18 01:02:44;;;;;;;6.10;4.47;;;19.80;64.30;;;;;;5000925;28;20501;-46
2022/10/18 01:05:13;;;;;;;6.22;4.30;;;19.80;64.30;;;;;;5000009;28;20058;-45
2022/10/18 01:08:01;;;;;;;6.22;4.20;;;19.80;64.40;;;;;;5002379;28;20065;-46
2022/10/18 01:10:35;;;;;;;4.90;4.25;;;19.80;64.50;;;;;;4999442;28;20057;-48
2022/10/18 01:13:14;;;;;;;6.20;4.20;;;19.80;64.40;;;;;;4998275;28;20061;-46
2022/10/18 01:15:49;;;;;;;5.22;4.10;;;19.80;64.50;;;;;;4989704;28;20126;-44
2022/10/18 01:18:23;;;;;;;6.53;4.68;;;19.80;64.40;;;;;;4995119;28;20058;-49
2022/10/18 01:21:14;;;;;;;7.40;5.53;;;19.80;64.40;;;;;;4984285;28;20498;-44
2022/10/18 01:24:20;;;;;;;6.25;4.38;;;19.80;64.50;;;;;;5003088;28;20434;-46
2022/10/18 01:27:07;;;;;;;6.97;4.68;;;19.80;64.50;;;;;;4907741;28;20064;-44
2022/10/18 01:29:50;;;;;;;6.35;4.93;;;19.80;64.50;;;;;;5020556;28;20064;-45
2022/10/18 01:32:22;;;;;;;7.43;5.37;;;19.80;65.20;;;;;;5020329;28;20049;-45
2022/10/18 01:34:55;;;;;;;7.10;5.63;;;19.80;64.50;;;;;;5021040;28;20466;-43
2022/10/18 01:37:23;;;;;;;7.97;5.13;;;19.80;64.50;;;;;;5020484;28;20056;-48
2022/10/18 01:39:54;;;;;;;6.80;5.32;;;19.80;64.60;;;;;;5020479;28;20076;-46
2022/10/18 01:42:21;;;;;;;9.82;5.53;;;19.80;64.70;;;;;;5021247;28;20056;-46
2022/10/18 01:44:51;;;;;;;9.32;6.07;;;19.80;64.70;;;;;;5023212;28;20053;-44
2022/10/18 01:47:21;;;;;;;7.50;5.85;;;19.80;64.80;;;;;;5022129;28;20406;-47
2022/10/18 01:49:48;;;;;;;9.70;6.72;;;19.80;64.90;;;;;;5023415;28;20068;-45
2022/10/18 01:52:16;;;;;;;7.88;5.80;;;19.70;64.90;;;;;;5023088;28;20061;-45
2022/10/18 01:54:48;;;;;;;8.38;6.22;;;19.80;65.00;;;;;;5022828;28;20060;-45
2022/10/18 01:57:23;;;;;;;7.93;5.95;;;19.70;65.10;;;;;;5023538;28;20049;-47
2022/10/18 02:00:00;;;;;;;7.88;6.25;;;19.80;65.10;;;;;;5023113;28;20054;-48
2022/10/18 02:02:40;;;;;;;9.60;6.47;;;19.70;65.20;;;;;;5020609;28;20908;-45
2022/10/18 02:05:14;;;;;;;9.20;5.93;;;19.70;65.20;;;;;;5023083;28;20049;-45
2022/10/18 02:07:47;;;;;;;7.10;5.60;;;19.70;65.10;;;;;;5022982;28;20061;-46
2022/10/18 02:10:20;;;;;;;11.13;6.40;;;19.70;65.10;;;;;;5021813;28;20057;-47
2022/10/18 02:12:50;;;;;;;8.95;6.20;;;19.70;65.20;;;;;;5023330;28;20053;-45
2022/10/18 02:15:20;;;;;;;8.90;6.75;;;19.80;65.20;;;;;;5017540;28;20053;-48
2022/10/18 02:17:50;;;;;;;7.93;6.60;;;19.80;65.20;;;;;;5022240;28;20071;-45
2022/10/18 02:20:22;;;;;;;8.00;6.32;;;19.70;65.10;;;;;;5022378;28;20053;-45
2022/10/18 02:22:51;;;;;;;11.40;6.53;;;19.70;65.20;;;;;;5026047;28;20411;-44
2022/10/18 02:25:22;;;;;;;9.05;5.72;;;19.70;65.10;;;;;;5025474;28;20409;-47
2022/10/18 02:27:49;;;;;;;10.77;5.82;;;19.70;66.00;;;;;;5024118;28;20513;-48
2022/10/18 02:30:17;;;;;;;9.68;6.93;;;19.70;65.20;;;;;;5023505;28;22128;-48
2022/10/18 02:32:49;;;;;;;10.30;6.18;;;19.70;65.30;;;;;;5026864;28;20061;-45
2022/10/18 02:35:21;;;;;;;8.50;6.45;;;19.70;65.50;;;;;;5026020;28;20061;-50
2022/10/18 02:37:51;;;;;;;7.40;5.80;;;19.70;65.50;;;;;;5024120;28;20052;-47
2022/10/18 02:40:18;;;;;;;8.63;6.10;;;19.70;65.50;;;;;;5023884;28;20618;-49
2022/10/18 02:42:48;;;;;;;9.18;6.50;;;19.70;65.60;;;;;;5026462;28;20512;-46
2022/10/18 02:45:16;;;;;;;10.23;7.15;;;19.70;65.60;;;;;;5024575;28;20062;-48
2022/10/18 02:47:43;;;;;;;12.60;7.45;;;19.70;65.70;;;;;;5025655;28;20050;-47
2022/10/18 02:50:13;;;;;;;9.85;6.63;;;19.70;65.80;;;;;;5022918;28;20053;-45
2022/10/18 02:52:40;;;;;;;38.20;7.03;;;19.70;65.90;;;;;;5026160;28;20057;-50
2022/10/18 02:55:08;;;;;;;11.60;7.35;;;19.70;65.90;;;;;;5026868;28;20052;-49
2022/10/18 02:57:36;;;;;;;26.25;6.43;;;19.60;65.80;;;;;;5032987;28;20052;-49
2022/10/18 03:00:04;;;;;;;412.50;16.08;;;19.60;65.80;;;;;;5028629;28;20057;-50
2022/10/18 03:02:32;;;;;;;246.00;9.85;;;19.60;66.00;;;;;;5026196;28;20053;-51
2022/10/18 03:04:59;;;;;;;316.75;11.90;;;19.50;66.00;;;;;;5029971;28;20056;-48
2022/10/18 03:07:27;;;;;;;642.03;24.67;;;19.50;66.30;;;;;;5029970;28;20421;-51
2022/10/18 03:09:55;;;;;;;576.70;23.02;;;19.30;66.70;;;;;;5026958;28;20057;-52
2022/10/18 03:12:22;;;;;;;222.73;8.63;;;19.30;67.00;;;;;;5026904;28;20053;-51
2022/10/18 03:14:49;;;;;;;239.80;10.43;;;19.20;67.40;;;;;;5027946;28;20485;-50
2022/10/18 03:17:16;;;;;;;4.25;3.65;;;19.10;67.90;;;;;;5024258;28;21251;-51
2022/10/18 03:19:43;;;;;;;4.68;3.42;;;19.00;68.30;;;;;;5024800;28;20535;-53
2022/10/18 03:22:11;;;;;;;3.33;2.95;;;19.00;68.70;;;;;;5025740;28;20061;-53
2022/10/18 03:24:39;;;;;;;3.50;2.42;;;18.90;68.90;;;;;;5024768;28;20064;-51
2022/10/18 03:27:06;;;;;;;2.88;2.13;;;18.90;69.20;;;;;;5025742;28;20509;-51
2022/10/18 03:29:33;;;;;;;1.48;1.27;;;18.90;69.30;;;;;;5025331;28;20053;-53
2022/10/18 03:32:01;;;;;;;1.45;1.27;;;18.80;69.40;;;;;;5021988;28;20049;-52
2022/10/18 03:34:28;;;;;;;1.90;1.10;;;18.80;69.50;;;;;;5025373;28;20053;-49
2022/10/18 03:36:56;;;;;;;1.80;1.70;;;18.80;69.60;;;;;;5025676;28;20519;-52
2022/10/18 03:39:23;;;;;;;1.75;1.58;;;18.80;69.70;;;;;;5025169;28;20061;-50
2022/10/18 03:41:52;;;;;;;2.50;1.80;;;18.90;69.80;;;;;;5022319;28;20605;-52
2022/10/18 03:44:19;;;;;;;2.15;1.95;;;18.80;69.90;;;;;;5023552;28;20053;-52
2022/10/18 03:46:46;;;;;;;3.10;2.20;;;18.90;70.00;;;;;;5020341;28;20054;-52
2022/10/18 03:49:13;;;;;;;6.55;2.20;;;18.80;70.70;;;;;;5022941;28;20054;-53
2022/10/18 03:51:41;;;;;;;2.58;2.03;;;18.80;70.10;;;;;;5020819;28;20410;-51
2022/10/18 03:54:08;;;;;;;4.18;2.92;;;18.80;70.20;;;;;;5019518;28;20049;-52
2022/10/18 03:56:35;;;;;;;2.78;2.08;;;18.90;70.40;;;;;;5024068;28;20049;-52
2022/10/18 03:59:04;;;;;;;2.95;2.63;;;18.90;70.40;;;;;;5022812;28;20061;-51
2022/10/18 04:01:31;;;;;;;8.55;5.57;;;18.90;70.40;;;;;;5019415;28;20505;-51
2022/10/18 04:03:58;;;;;;;9.32;4.95;;;18.90;70.50;;;;;;5024959;28;20065;-50
2022/10/18 04:06:25;;;;;;;9.73;4.63;;;18.90;70.50;;;;;;5011294;28;119438;-53
2022/10/18 04:08:55;;;;;;;6.40;5.00;;;18.90;70.50;;;;;;5009777;28;20641;-52
2022/10/18 04:11:22;;;;;;;7.53;5.55;;;19.00;70.70;;;;;;5023533;28;20045;-52
2022/10/18 04:13:49;;;;;;;15.90;6.28;;;19.00;70.70;;;;;;5014449;28;20041;-50
2022/10/18 04:16:18;;;;;;;245.57;11.68;;;18.90;70.70;;;;;;5009371;28;20050;-51
2022/10/18 04:18:45;;;;;;;222.23;10.68;;;18.90;70.80;;;;;;5020289;28;20045;-52
2022/10/18 04:21:12;;;;;;;4.30;3.65;;;18.90;70.80;;;;;;5022896;28;20060;-50
2022/10/18 04:23:40;;;;;;;5.35;2.63;;;19.00;70.90;;;;;;5024136;28;20056;-52
2022/10/18 04:26:07;;;;;;;4.90;2.55;;;18.90;70.80;;;;;;5020405;28;20057;-46
2022/10/18 04:28:38;;;;;;;229.35;9.40;;;19.00;70.90;;;;;;5024681;28;20501;-52
2022/10/18 04:31:06;;;;;;;278.77;11.93;;;19.00;70.90;;;;;;5020901;28;20065;-52
2022/10/18 04:33:35;;;;;;;5.57;4.97;;;19.00;70.80;;;;;;5025521;28;20056;-50
2022/10/18 04:36:02;;;;;;;6.50;5.15;;;19.00;70.60;;;;;;5025706;28;20058;-50
2022/10/18 04:38:29;;;;;;;6.88;4.97;;;19.10;70.60;;;;;;5022898;28;20046;-51
2022/10/18 04:40:56;;;;;;;10.95;6.43;;;19.10;70.50;;;;;;5017629;28;20588;-50
2022/10/18 04:43:23;;;;;;;102.25;9.25;;;19.10;70.30;;;;;;5019524;28;20052;-52
2022/10/18 04:45:51;;;;;;;66.18;8.50;;;19.10;70.10;;;;;;5022469;28;20544;-51
2022/10/18 04:48:18;;;;;;;63.53;9.02;;;19.10;70.00;;;;;;5023857;28;20064;-52
2022/10/18 04:50:49;;;;;;;8.90;6.82;;;19.10;70.00;;;;;;5022450;28;20056;-52
2022/10/18 04:53:17;;;;;;;7.43;5.93;;;19.10;70.00;;;;;;5022788;28;20053;-50
2022/10/18 04:55:45;;;;;;;7.60;6.47;;;19.10;70.00;;;;;;5023014;28;20056;-52
2022/10/18 04:58:12;;;;;;;10.65;8.00;;;19.10;70.00;;;;;;5025134;28;20600;-52
2022/10/18 05:00:40;;;;;;;10.48;7.47;;;19.10;70.00;;;;;;5021817;28;20390;-53
2022/10/18 05:03:08;;;;;;;10.40;7.25;;;19.10;69.90;;;;;;5023936;28;20068;-50
2022/10/18 05:05:35;;;;;;;7.38;6.38;;;19.10;69.80;;;;;;5024783;28;20049;-48
2022/10/18 05:08:04;;;;;;;7.07;6.03;;;19.10;69.90;;;;;;5021720;28;20520;-50
2022/10/18 05:10:31;;;;;;;6.20;5.22;;;19.10;70.10;;;;;;5022604;28;20056;-53
2022/10/18 05:12:59;;;;;;;9.45;5.97;;;19.10;70.00;;;;;;5021684;28;20076;-50
2022/10/18 05:15:26;;;;;;;7.45;5.88;;;19.10;70.00;;;;;;5010356;28;20068;-53
2022/10/18 05:17:53;;;;;;;6.40;5.15;;;19.10;69.90;;;;;;5015523;28;20049;-52
2022/10/18 05:20:21;;;;;;;5.65;4.78;;;19.20;69.90;;;;;;5019577;28;20068;-52
2022/10/18 05:22:48;;;;;;;6.43;5.40;;;19.10;69.80;;;;;;5025261;28;20508;-52
2022/10/18 05:25:16;;;;;;;5.47;4.78;;;19.10;69.70;;;;;;5022909;28;20054;-52
2022/10/18 05:27:44;;;;;;;5.30;4.63;;;19.20;69.70;;;;;;5020478;28;20045;-51
2022/10/18 05:30:11;;;;;;;4.85;4.03;;;19.20;69.60;;;;;;5014686;28;20061;-50
2022/10/18 05:32:38;;;;;;;4.50;3.90;;;19.20;69.40;;;;;;5008586;28;20045;-50
2022/10/18 05:35:06;;;;;;;5.80;4.55;;;19.20;69.30;;;;;;5014484;28;20494;-52
2022/10/18 05:37:34;;;;;;;4.00;3.50;;;19.20;69.20;;;;;;5012697;28;20049;-48
2022/10/18 05:40:01;;;;;;;5.70;3.95;;;19.20;69.10;;;;;;5005005;28;20068;-51
2022/10/18 05:42:29;;;;;;;4.75;3.42;;;19.20;69.00;;;;;;5009429;28;20054;-52
2022/10/18 05:44:57;;;;;;;6.38;4.18;;;19.30;69.00;;;;;;5013165;28;20057;-52
2022/10/18 05:47:24;;;;;;;6.25;4.13;;;19.20;68.80;;;;;;5012139;28;20050;-51
2022/10/18 05:49:51;;;;;;;4.28;3.15;;;19.20;68.60;;;;;;5010249;28;20390;-52
2022/10/18 05:52:19;;;;;;;4.55;3.55;;;19.20;68.50;;;;;;5009345;28;20061;-52
2022/10/18 05:54:46;;;;;;;6.00;3.50;;;19.20;68.40;;;;;;5009328;28;20053;-50
2022/10/18 05:57:13;;;;;;;5.32;3.83;;;19.20;68.40;;;;;;5009537;28;20485;-51
2022/10/18 05:59:41;;;;;;;6.18;3.85;;;19.20;68.30;;;;;;5017674;28;20065;-52
2022/10/18 06:02:10;;;;;;;7.03;4.55;;;19.20;68.30;;;;;;5012647;28;20054;-53
2022/10/18 06:04:37;;;;;;;9.93;5.95;;;19.20;68.30;;;;;;5021246;28;20053;-50
2022/10/18 06:07:08;;;;;;;8.93;6.28;;;19.20;68.30;;;;;;5018179;28;20080;-52
2022/10/18 06:09:35;;;;;;;9.65;6.93;;;19.10;68.50;;;;;;5022905;28;20053;-51
2022/10/18 06:12:02;;;;;;;9.80;7.18;;;19.10;68.50;;;;;;5018317;28;20064;-53
2022/10/18 06:14:30;;;;;;;10.35;7.75;;;19.00;68.70;;;;;;5020556;28;20053;-53
2022/10/18 06:16:59;;;;;;;12.43;7.68;;;19.00;68.90;;;;;;5021595;28;20053;-53
2022/10/18 06:19:26;;;;;;;10.18;6.97;;;19.00;69.10;;;;;;5021289;28;20401;-53
2022/10/18 06:21:53;;;;;;;10.05;6.43;;;19.00;69.20;;;;;;5018952;28;20057;-51
2022/10/18 06:24:21;;;;;;;6.95;5.80;;;18.90;69.30;;;;;;5020802;28;20052;-53
2022/10/18 06:26:48;;;;;;;7.45;5.75;;;18.90;69.40;;;;;;5019369;28;20053;-53
2022/10/18 06:29:16;;;;;;;5.47;4.75;;;18.90;69.50;;;;;;5014791;28;20052;-51
2022/10/18 06:31:43;;;;;;;9.80;6.00;;;18.90;69.60;;;;;;5014286;28;20076;-53
2022/10/18 06:34:11;;;;;;;5.72;4.88;;;18.90;69.70;;;;;;5017815;28;20064;-53
2022/10/18 06:36:39;;;;;;;6.82;5.53;;;18.90;69.70;;;;;;5020470;28;20054;-51
2022/10/18 06:39:06;;;;;;;6.03;5.13;;;18.90;69.70;;;;;;5024035;28;20489;-52
2022/10/18 06:41:33;;;;;;;7.15;5.22;;;18.90;69.70;;;;;;5022752;28;20060;-53
2022/10/18 06:44:06;;;;;;;5.60;4.80;;;19.00;69.80;;;;;;5017126;28;20053;-53
2022/10/18 06:46:33;;;;;;;5.40;4.45;;;19.00;69.80;;;;;;5019247;28;20064;-51
2022/10/18 06:49:00;;;;;;;68.28;28.55;;;19.00;69.70;;;;;;5021762;28;20045;-52
2022/10/18 06:51:28;;;;;;;81.07;42.53;;;19.00;69.70;;;;;;5017352;28;20053;-52
2022/10/18 06:53:56;;;;;;;30.90;17.67;;;19.00;69.60;;;;;;5022396;28;20069;-51
2022/10/18 06:56:23;;;;;;;13.07;8.38;;;19.10;69.60;;;;;;5023973;28;20060;-53
2022/10/18 06:58:50;;;;;;;10.90;6.20;;;19.10;69.40;;;;;;5023682;28;20057;-53
2022/10/18 07:01:18;;;;;;;6.90;5.13;;;19.10;69.30;;;;;;5023355;28;20057;-52
2022/10/18 07:03:47;;;;;;;8.38;5.10;;;19.10;69.20;;;;;;5023864;28;20378;-52
2022/10/18 07:06:17;;;;;;;8.45;5.10;;;19.10;69.10;;;;;;5024269;28;20057;-52
2022/10/18 07:08:47;;;;;;;6.35;4.57;;;19.10;69.00;;;;;;5023040;28;20054;-53
2022/10/18 07:11:16;;;;;;;6.13;3.65;;;19.20;68.90;;;;;;5015149;28;20497;-52
2022/10/18 07:13:44;;;;;;;5.80;3.72;;;19.20;68.90;;;;;;5019552;28;20413;-51
2022/10/18 07:16:12;;;;;;;9.38;3.95;;;19.20;68.80;;;;;;5025571;28;20425;-52
2022/10/18 07:18:41;;;;;;;4.97;3.90;;;19.10;68.70;;;;;;5026333;28;20057;-50
2022/10/18 07:21:10;;;;;;;4.60;4.03;;;19.20;68.70;;;;;;5027183;28;20061;-53
2022/10/18 07:23:39;;;;;;;5.00;3.95;;;19.20;68.70;;;;;;5025664;28;20049;-53
2022/10/18 07:26:14;;;;;;;4.60;3.67;;;19.20;68.70;;;;;;5026482;28;20058;-52
2022/10/18 07:28:42;;;;;;;8.07;4.30;;;19.20;68.70;;;;;;5013413;28;20045;-52
2022/10/18 07:31:11;;;;;;;3.92;3.45;;;19.20;68.70;;;;;;5013657;28;20421;-51
2022/10/18 07:33:38;;;;;;;4.35;3.15;;;19.20;68.70;;;;;;5015585;28;20508;-53
2022/10/18 07:36:08;;;;;;;4.38;3.65;;;19.20;68.80;;;;;;5015696;28;20057;-52
2022/10/18 07:38:35;;;;;;;6.82;3.80;;;19.20;68.70;;;;;;5013976;28;20057;-50
2022/10/18 07:41:06;;;;;;;4.45;3.88;;;19.30;68.80;;;;;;5011915;28;20049;-52
2022/10/18 07:43:35;;;;;;;4.47;3.80;;;19.30;68.80;;;;;;5015576;28;20045;-48
2022/10/18 07:46:03;;;;;;;4.13;3.60;;;19.30;69.00;;;;;;5012150;28;20062;-53
2022/10/18 07:48:31;;;;;;;6.75;4.22;;;19.30;69.10;;;;;;5012780;28;20045;-51
2022/10/18 07:50:59;;;;;;;6.85;5.18;;;19.30;69.20;;;;;;5014987;28;20049;-53
2022/10/18 07:53:27;;;;;;;7.90;5.97;;;19.30;69.30;;;;;;5014708;28;20798;-53
2022/10/18 07:55:58;;;;;;;5.93;4.90;;;19.30;69.50;;;;;;5019726;28;20511;-53
2022/10/18 07:58:26;;;;;;;9.25;4.88;;;19.30;69.50;;;;;;5023423;28;20049;-53
2022/10/18 08:00:54;;;;;;;7.15;4.93;;;19.40;69.50;;;;;;5014200;28;21024;-52
2022/10/18 08:03:22;;;;;;;6.40;5.15;;;19.40;69.70;;;;;;5014353;28;20561;-49
2022/10/18 08:05:52;;;;;;;8.55;6.55;;;19.40;69.70;;;;;;5014549;28;20087;-51
2022/10/18 08:08:19;;;;;;;10.50;6.35;;;19.40;70.00;;;;;;5014408;28;20060;-51
2022/10/18 08:10:47;;;;;;;8.50;6.40;;;19.40;70.00;;;;;;5016667;28;20413;-52
2022/10/18 08:13:15;;;;;;;7.63;5.75;;;19.40;70.20;;;;;;5016474;28;20508;-51
2022/10/18 08:15:42;;;;;;;8.25;5.80;;;19.40;70.20;;;;;;5009188;28;20065;-51
2022/10/18 08:18:11;;;;;;;6.68;5.75;;;19.40;70.20;;;;;;5005116;28;20053;-52
2022/10/18 08:20:42;;;;;;;8.13;5.25;;;19.40;70.30;;;;;;5010231;28;20049;-54
2022/10/18 08:23:09;;;;;;;6.00;4.95;;;19.40;70.30;;;;;;5014787;28;20509;-52
2022/10/18 08:25:37;;;;;;;11.98;6.82;;;19.40;70.20;;;;;;5017554;28;21430;-52
2022/10/18 08:28:04;;;;;;;7.80;6.00;;;19.50;70.90;;;;;;5016898;28;20053;-52
2022/10/18 08:30:32;;;;;;;9.95;6.85;;;19.50;69.90;;;;;;5015907;28;20057;-53
2022/10/18 08:32:59;;;;;;;10.13;6.72;;;19.40;69.90;;;;;;5014574;28;21148;-51
2022/10/18 08:35:27;;;;;;;12.50;7.00;;;19.40;70.00;;;;;;5017069;28;20065;-51
2022/10/18 08:37:55;;;;;;;11.15;6.05;;;19.40;70.20;;;;;;5014484;28;20057;-50
2022/10/18 08:40:22;;;;;;;9.88;6.65;;;19.40;70.30;;;;;;5013564;28;20531;-49
2022/10/18 08:43:02;;;;;;;7.82;6.00;;;19.40;70.30;;;;;;5010260;28;20068;-52
2022/10/18 08:45:34;;;;;;;10.30;6.10;;;19.30;70.20;;;;;;5022000;28;20053;-53
2022/10/18 08:48:04;;;;;;;9.32;6.55;;;19.40;70.60;;;;;;5025011;28;20049;-53
2022/10/18 08:50:35;;;;;;;9.52;7.28;;;19.40;71.00;;;;;;5025023;28;20049;-52
2022/10/18 08:53:12;;;;;;;14.45;6.38;;;19.40;71.20;;;;;;5028252;28;20054;-49
2022/10/18 08:55:42;;;;;;;7.20;5.70;;;19.30;71.30;;;;;;5025387;28;20092;-51
2022/10/18 08:58:16;;;;;;;7.63;5.75;;;19.30;71.00;;;;;;5026970;28;20061;-52
2022/10/18 09:00:54;;;;;;;7.55;5.57;;;19.30;70.60;;;;;;5021946;28;20485;-51
2022/10/18 09:03:33;;;;;;;10.13;6.93;;;19.30;70.60;;;;;;5026163;28;20072;-53
2022/10/18 09:06:13;;;;;;;10.68;6.95;;;19.30;70.90;;;;;;5025855;28;20060;-51
2022/10/18 09:08:50;;;;;;;9.02;5.97;;;19.30;71.20;;;;;;5028740;28;20057;-54
2022/10/18 09:11:44;;;;;;;6.20;5.30;;;19.30;71.50;;;;;;5026968;28;20054;-50
2022/10/18 09:14:56;;;;;;;10.05;6.70;;;19.40;71.70;;;;;;5026592;28;20068;-52
2022/10/18 09:17:32;;;;;;;9.52;6.68;;;19.40;71.60;;;;;;5018145;28;20057;-53
2022/10/18 09:20:18;;;;;;;9.57;6.30;;;19.40;71.60;;;;;;5027984;28;20401;-52
2022/10/18 09:22:53;;;;;;;10.93;7.05;;;19.40;71.60;;;;;;5027675;28;20053;-52
2022/10/18 09:25:22;;;;;;;11.00;7.78;;;19.40;70.80;;;;;;5025107;28;20054;-52
2022/10/18 09:27:55;;;;;;;11.43;8.05;;;19.40;71.10;;;;;;5025487;28;20050;-53
2022/10/18 09:30:43;;;;;;;9.57;8.20;;;19.40;71.50;;;;;;5024638;28;22000;-52
2022/10/18 09:33:34;;;;;;;15.25;9.43;;;19.40;71.60;;;;;;5024479;28;20057;-54
2022/10/18 09:36:04;;;;;;;16.45;9.52;;;19.40;71.60;;;;;;5029755;28;20050;-53
2022/10/18 09:38:40;;;;;;;13.43;9.23;;;19.40;71.30;;;;;;5028965;28;20053;-52
2022/10/18 09:41:12;;;;;;;9.50;8.00;;;19.40;71.20;;;;;;5027723;28;20052;-49
2022/10/18 09:43:49;;;;;;;9.85;8.68;;;19.40;71.30;;;;;;5029869;28;20057;-51
2022/10/18 09:46:18;;;;;;;15.13;11.05;;;19.40;71.50;;;;;;5024368;28;20060;-52
2022/10/18 09:48:51;;;;;;;12.35;9.75;;;19.40;71.50;;;;;;5029209;28;20057;-53
2022/10/18 09:51:21;;;;;;;13.60;10.77;;;19.50;71.80;;;;;;5027418;28;20065;-52
2022/10/18 09:54:13;;;;;;;13.48;10.93;;;19.40;71.90;;;;;;5027718;28;20072;-52
2022/10/18 09:56:44;;;;;;;19.80;13.02;;;19.60;72.30;;;;;;5027715;28;20473;-50
2022/10/18 09:59:32;;;;;;;17.05;12.23;;;19.50;72.10;;;;;;5026602;28;20413;-52
2022/10/18 10:01:59;;;;;;;19.13;13.57;;;19.60;72.20;;;;;;5025619;28;20068;-52
2022/10/18 10:04:26;;;;;;;14.70;11.73;;;19.60;72.10;;;;;;5030887;28;20057;-49
2022/10/18 10:06:58;;;;;;;15.98;11.93;;;19.60;72.20;;;;;;5028380;28;20509;-49
2022/10/18 10:09:29;;;;;;;16.13;11.23;;;19.70;72.30;;;;;;5027180;28;20064;-51
2022/10/18 10:11:57;;;;;;;13.30;9.52;;;19.60;72.00;;;;;;5027424;28;20061;-51
2022/10/18 10:14:26;;;;;;;14.90;10.57;;;19.60;71.50;;;;;;5026066;28;20053;-50
2022/10/18 10:16:56;;;;;;;14.00;10.13;;;19.60;71.30;;;;;;5026455;28;20057;-53
2022/10/18 10:19:27;;;;;;;13.15;9.70;;;19.60;71.50;;;;;;5028196;28;20068;-53
2022/10/18 10:21:59;;;;;;;11.38;7.80;;;19.60;71.30;;;;;;5027400;28;20060;-53
2022/10/18 10:24:34;;;;;;;14.18;10.32;;;19.60;71.20;;;;;;5024614;28;20053;-52
2022/10/18 10:27:04;;;;;;;15.23;9.70;;;19.70;71.10;;;;;;5028848;28;20053;-54
2022/10/18 10:29:56;;;;;;;12.30;9.40;;;19.60;71.00;;;;;;5029022;28;20069;-53
2022/10/18 10:32:26;;;;;;;13.27;9.60;;;19.70;71.30;;;;;;5026237;28;20049;-54
2022/10/18 10:34:54;;;;;;;14.73;8.60;;;19.70;71.20;;;;;;5027577;28;20433;-54
2022/10/18 10:37:27;;;;;;;11.75;8.48;;;19.70;71.30;;;;;;5028523;28;20062;-53
2022/10/18 10:40:17;;;;;;;11.27;7.70;;;19.70;71.60;;;;;;5025697;28;20058;-52
2022/10/18 10:43:20;;;;;;;8.52;7.03;;;19.70;71.10;;;;;;5028135;28;20053;-49
2022/10/18 10:46:10;;;;;;;9.68;6.75;;;19.70;70.50;;;;;;5029142;28;20056;-52
2022/10/18 10:48:47;;;;;;;11.75;7.25;;;19.60;70.60;;;;;;5031099;28;20053;-52
2022/10/18 10:51:18;;;;;;;11.50;6.88;;;19.60;71.10;;;;;;5034429;28;20053;-52
2022/10/18 10:53:51;;;;;;;9.85;7.00;;;19.60;71.40;;;;;;5034182;28;20058;-52
2022/10/18 10:56:25;;;;;;;9.10;5.38;;;19.60;71.50;;;;;;5033259;28;20060;-52
2022/10/18 10:58:53;;;;;;;6.78;4.72;;;19.60;71.50;;;;;;5031421;28;20049;-51
2022/10/18 11:01:30;;;;;;;4.25;3.80;;;19.60;71.40;;;;;;5029705;28;20068;-47
2022/10/18 11:03:59;;;;;;;5.47;4.13;;;19.60;71.50;;;;;;5032875;28;20061;-52
2022/10/18 11:06:46;;;;;;;7.10;4.57;;;19.60;71.50;;;;;;5032335;28;20053;-51
2022/10/18 11:09:41;;;;;;;7.45;5.50;;;19.60;71.60;;;;;;5031821;28;20057;-52
2022/10/18 11:12:18;;;;;;;7.22;5.95;;;19.60;71.50;;;;;;5029628;28;20489;-49
2022/10/18 11:14:51;;;;;;;7.68;6.00;;;19.60;71.40;;;;;;5031415;28;20061;-49
2022/10/18 11:17:25;;;;;;;7.40;5.40;;;19.60;71.60;;;;;;5030377;28;20057;-47
2022/10/18 11:20:20;;;;;;;7.15;5.20;;;19.60;71.50;;;;;;5033119;28;20870;-51
2022/10/18 11:22:59;;;;;;;8.18;5.78;;;19.50;71.70;;;;;;5033115;28;20080;-54
2022/10/18 11:25:39;;;;;;;9.00;5.97;;;19.60;71.90;;;;;;5030892;28;20053;-51
2022/10/18 11:28:16;;;;;;;7.15;5.82;;;19.60;72.10;;;;;;5029347;28;20060;-49
2022/10/18 11:30:54;;;;;;;7.00;6.03;;;19.60;72.00;;;;;;5025779;28;20052;-49
2022/10/18 11:33:31;;;;;;;10.13;5.97;;;19.60;71.90;;;;;;5030014;28;20053;-53
2022/10/18 11:36:07;;;;;;;6.75;5.43;;;19.60;71.90;;;;;;5029285;28;20064;-53
2022/10/18 11:38:44;;;;;;;6.97;5.05;;;19.60;71.80;;;;;;5028812;28;20061;-50
2022/10/18 11:41:28;;;;;;;4.70;4.00;;;19.60;71.90;;;;;;5026628;28;21379;-53
2022/10/18 11:43:59;;;;;;;4.55;3.65;;;19.60;71.80;;;;;;5025977;28;20053;-48
2022/10/18 11:46:51;;;;;;;3.63;3.17;;;19.60;71.80;;;;;;5028383;28;20060;-51
2022/10/18 11:49:44;;;;;;;4.22;3.60;;;19.60;71.90;;;;;;5027837;28;20061;-52
2022/10/18 11:52:21;;;;;;;4.00;3.40;;;19.60;72.00;;;;;;5026812;28;20060;-51
2022/10/18 11:55:13;;;;;;;3.72;2.97;;;19.60;72.10;;;;;;5028048;28;20053;-53
2022/10/18 11:57:46;;;;;;;7.32;5.13;;;19.60;73.10;;;;;;5027288;28;20057;-50
2022/10/18 12:00:24;;;;;;;9.85;6.10;;;19.60;72.20;;;;;;5024403;28;20054;-52
2022/10/18 12:03:23;;;;;;;8.70;7.18;;;19.60;72.00;;;;;;5023724;28;20054;-52
2022/10/18 12:05:52;;;;;;;17.15;10.77;;;19.60;72.00;;;;;;4995283;28;20057;-51
2022/10/18 12:08:25;;;;;;;21.23;13.27;;;19.50;72.10;;;;;;5023775;28;20506;-53
2022/10/18 12:10:56;;;;;;;23.25;12.13;;;19.50;72.30;;;;;;5026372;28;20076;-52
2022/10/18 12:13:29;;;;;;;19.52;11.88;;;19.50;72.70;;;;;;5028133;28;20061;-52
2022/10/18 12:15:58;;;;;;;15.32;10.25;;;19.50;72.90;;;;;;5025879;28;20072;-50
2022/10/18 12:18:26;;;;;;;15.25;10.23;;;19.50;73.10;;;;;;5027881;28;20049;-51
2022/10/18 12:20:56;;;;;;;23.35;13.18;;;19.50;73.40;;;;;;5026064;28;20054;-53
2022/10/18 12:23:36;;;;;;;17.80;12.32;;;19.50;73.60;;;;;;5026323;28;20064;-52
2022/10/18 12:26:05;;;;;;;15.88;12.02;;;19.50;73.60;;;;;;5028366;28;20413;-52
2022/10/18 12:28:44;;;;;;;17.60;13.32;;;19.50;73.40;;;;;;5027299;28;20057;-53
2022/10/18 12:31:20;;;;;;;14.45;10.68;;;19.60;73.60;;;;;;5024850;28;20057;-53
2022/10/18 12:33:51;;;;;;;16.90;12.45;;;19.60;73.50;;;;;;5027234;28;20588;-53
2022/10/18 12:36:42;;;;;;;15.05;11.20;;;19.70;73.40;;;;;;5027241;28;20065;-53
2022/10/18 12:39:15;;;;;;;19.60;13.20;;;19.70;73.40;;;;;;5026912;28;20057;-53
2022/10/18 12:41:47;;;;;;;20.17;13.70;;;19.80;73.30;;;;;;5026742;28;20053;-51
2022/10/18 12:44:19;;;;;;;18.10;14.38;;;19.80;73.20;;;;;;5022243;28;20061;-53
2022/10/18 12:46:51;;;;;;;27.45;18.98;;;19.90;73.20;;;;;;5022667;28;20409;-51
2022/10/18 12:49:23;;;;;;;27.58;19.20;;;19.90;73.00;;;;;;5027474;28;20053;-51
2022/10/18 12:51:52;;;;;;;21.50;15.30;;;20.00;72.70;;;;;;5021389;28;20061;-49
2022/10/18 12:54:25;;;;;;;28.10;20.48;;;20.00;72.30;;;;;;5025032;28;20053;-53
2022/10/18 12:56:52;;;;;;;30.55;21.95;;;20.00;72.00;;;;;;5020256;28;20053;-51
2022/10/18 12:59:49;;;;;;;24.13;17.45;;;20.00;72.80;;;;;;5021395;28;20448;-52
2022/10/18 13:02:30;;;;;;;23.67;17.30;;;20.00;72.40;;;;;;5024910;28;20049;-52